createdAt,value
2022-07-29T00:00:00.635Z,16.71
2022-07-29T00:02:28.360Z,16.65
2022-07-29T00:04:55.205Z,16.66
2022-07-29T00:07:21.844Z,16.66
2022-07-29T00:09:50.914Z,16.65
2022-07-29T00:12:26.528Z,16.60
2022-07-29T00:14:57.534Z,16.59
2022-07-29T00:17:25.257Z,16.57
2022-07-29T00:19:52.725Z,16.47
2022-07-29T00:22:20.205Z,16.44
2022-07-29T00:24:49.682Z,16.45
2022-07-29T00:27:16.767Z,16.47
2022-07-29T00:29:43.469Z,16.52
2022-07-29T00:32:10.098Z,16.58
2022-07-29T00:34:55.653Z,16.62
2022-07-29T00:37:22.458Z,16.58
2022-07-29T00:39:49.167Z,16.58
2022-07-29T00:42:15.965Z,16.57
2022-07-29T00:44:42.813Z,16.51
2022-07-29T00:47:11.613Z,16.53
2022-07-29T00:49:40.852Z,16.52
2022-07-29T00:52:09.468Z,16.48
2022-07-29T00:54:39.180Z,16.46
2022-07-29T00:57:11.049Z,16.40
2022-07-29T00:59:37.866Z,16.44
2022-07-29T01:02:04.666Z,16.38
2022-07-29T01:04:32.794Z,16.35
2022-07-29T01:07:01.493Z,16.26
2022-07-29T01:09:40.796Z,16.19
2022-07-29T01:12:20.730Z,16.16
2022-07-29T01:14:49.946Z,16.12
2022-07-29T01:17:28.529Z,16.07
2022-07-29T01:20:00.950Z,16.06
2022-07-29T01:22:37.101Z,15.97
2022-07-29T01:25:11.138Z,15.90
2022-07-29T01:27:53.482Z,15.88
2022-07-29T01:30:23.658Z,15.86
2022-07-29T01:32:55.455Z,15.90
2022-07-29T01:35:29.700Z,15.91
2022-07-29T01:38:09.425Z,15.91
2022-07-29T01:40:48.848Z,15.93
2022-07-29T01:43:22.022Z,15.94
2022-07-29T01:46:02.147Z,15.86
2022-07-29T01:48:38.032Z,15.77
2022-07-29T01:51:30.230Z,15.79
2022-07-29T01:54:08.178Z,15.78
2022-07-29T01:56:37.344Z,15.76
2022-07-29T01:59:07.518Z,15.77
2022-07-29T02:01:35.886Z,15.80
2022-07-29T02:04:08.585Z,15.79
2022-07-29T02:06:38.275Z,15.79
2022-07-29T02:09:06.102Z,15.78
2022-07-29T02:11:36.960Z,15.78
2022-07-29T02:14:06.038Z,15.79
2022-07-29T02:16:34.345Z,15.79
2022-07-29T02:19:03.760Z,15.74
2022-07-29T02:21:33.061Z,15.75
2022-07-29T02:24:02.385Z,15.73
2022-07-29T02:26:31.377Z,15.73
2022-07-29T02:29:00.106Z,15.71
2022-07-29T02:31:33.524Z,15.73
2022-07-29T02:34:02.770Z,15.73
2022-07-29T02:36:30.806Z,15.80
2022-07-29T02:39:01.505Z,15.85
2022-07-29T02:41:45.930Z,15.82
2022-07-29T02:44:17.849Z,15.83
2022-07-29T02:46:52.046Z,15.79
2022-07-29T02:49:43.794Z,15.84
2022-07-29T02:52:13.364Z,15.82
2022-07-29T02:54:43.251Z,15.82
2022-07-29T02:57:22.741Z,15.79
2022-07-29T02:59:52.581Z,15.77
2022-07-29T03:02:20.546Z,15.81
2022-07-29T03:04:50.180Z,15.78
2022-07-29T03:07:19.738Z,15.77
2022-07-29T03:09:46.916Z,15.77
2022-07-29T03:12:14.858Z,15.77
2022-07-29T03:14:42.189Z,15.73
2022-07-29T03:17:10.724Z,15.69
2022-07-29T03:19:37.531Z,15.70
2022-07-29T03:22:04.934Z,15.71
2022-07-29T03:24:36.663Z,15.70
2022-07-29T03:27:04.194Z,15.69
2022-07-29T03:29:33.981Z,15.63
2022-07-29T03:32:03.360Z,15.62
2022-07-29T03:34:31.014Z,15.65
2022-07-29T03:36:57.677Z,15.64
2022-07-29T03:39:30.505Z,15.60
2022-07-29T03:41:59.912Z,15.60
2022-07-29T03:44:28.640Z,15.64
2022-07-29T03:46:58.954Z,15.62
2022-07-29T03:49:27.410Z,15.63
2022-07-29T03:51:54.395Z,15.69
2022-07-29T03:54:21.683Z,15.73
2022-07-29T03:56:51.198Z,15.77
2022-07-29T03:59:20.482Z,15.75
2022-07-29T04:01:47.983Z,15.77
2022-07-29T04:04:15.104Z,15.82
2022-07-29T04:06:43.853Z,15.92
2022-07-29T04:09:11.624Z,15.93
2022-07-29T04:11:59.628Z,15.96
2022-07-29T04:14:27.923Z,16.01
2022-07-29T04:16:54.589Z,16.03
2022-07-29T04:19:21.183Z,16.06
2022-07-29T04:21:47.887Z,16.08
2022-07-29T04:24:15.069Z,16.11
2022-07-29T04:26:41.928Z,16.12
2022-07-29T04:29:08.670Z,16.14
2022-07-29T04:31:35.430Z,16.16
2022-07-29T04:34:02.104Z,16.21
2022-07-29T04:36:29.919Z,16.23
2022-07-29T04:38:57.265Z,16.25
2022-07-29T04:41:23.886Z,16.34
2022-07-29T04:44:01.977Z,16.38
2022-07-29T04:46:28.955Z,16.44
2022-07-29T04:48:55.712Z,16.48
2022-07-29T04:51:22.359Z,16.50
2022-07-29T04:53:48.993Z,16.52
2022-07-29T04:56:15.798Z,16.60
2022-07-29T04:58:42.478Z,16.66
2022-07-29T05:01:09.218Z,16.73
2022-07-29T05:03:35.861Z,16.75
2022-07-29T05:06:02.546Z,16.76
2022-07-29T05:08:29.222Z,16.75
2022-07-29T05:10:55.957Z,16.83
2022-07-29T05:13:22.564Z,16.87
2022-07-29T05:15:49.335Z,16.93
2022-07-29T05:18:16.564Z,17.02
2022-07-29T05:20:43.226Z,17.00
2022-07-29T05:23:10.018Z,17.01
2022-07-29T05:25:44.340Z,17.03
2022-07-29T05:28:12.411Z,17.01
2022-07-29T05:30:39.586Z,17.03
2022-07-29T05:33:06.328Z,17.08
2022-07-29T05:35:33.375Z,17.16
2022-07-29T05:37:59.957Z,17.22
2022-07-29T05:40:26.616Z,17.22
2022-07-29T05:42:53.308Z,17.20
2022-07-29T05:45:19.967Z,17.24
2022-07-29T05:47:46.683Z,17.25
2022-07-29T05:50:13.690Z,17.28
2022-07-29T05:52:40.323Z,17.31
2022-07-29T05:55:07.450Z,17.37
2022-07-29T05:57:34.293Z,17.46
2022-07-29T06:00:01.100Z,17.49
2022-07-29T06:02:27.917Z,17.16
2022-07-29T06:04:54.792Z,17.20
2022-07-29T06:07:24.500Z,17.30
2022-07-29T06:09:51.224Z,17.38
2022-07-29T06:12:17.812Z,17.50
2022-07-29T06:14:44.454Z,17.54
2022-07-29T06:17:12.578Z,17.59
2022-07-29T06:19:41.857Z,17.72
2022-07-29T06:22:08.474Z,17.74
2022-07-29T06:24:38.162Z,17.81
2022-07-29T06:27:04.721Z,17.91
2022-07-29T06:29:31.830Z,17.97
2022-07-29T06:31:58.628Z,18.01
2022-07-29T06:34:25.282Z,18.02
2022-07-29T06:36:53.730Z,18.06
2022-07-29T06:39:21.405Z,18.14
2022-07-29T06:41:50.162Z,18.15
2022-07-29T06:44:18.434Z,18.22
2022-07-29T06:46:45.407Z,18.13
2022-07-29T06:49:13.352Z,18.00
2022-07-29T06:51:40.016Z,18.22
2022-07-29T06:54:06.780Z,18.28
2022-07-29T06:56:38.453Z,18.32
2022-07-29T06:59:07.939Z,18.40
2022-07-29T07:01:34.805Z,18.44
2022-07-29T07:04:01.583Z,18.54
2022-07-29T07:06:30.536Z,18.65
2022-07-29T07:08:57.153Z,18.70
2022-07-29T07:11:23.876Z,18.56
2022-07-29T07:13:50.478Z,18.53
2022-07-29T07:16:17.329Z,18.35
2022-07-29T07:18:46.062Z,18.36
2022-07-29T07:21:18.986Z,18.61
2022-07-29T07:23:46.676Z,18.69
2022-07-29T07:26:13.448Z,18.66
2022-07-29T07:28:40.248Z,18.79
2022-07-29T07:31:07.087Z,18.88
2022-07-29T07:33:33.786Z,18.98
2022-07-29T07:36:02.594Z,18.85
2022-07-29T07:38:29.226Z,18.79
2022-07-29T07:40:56.055Z,18.80
2022-07-29T07:43:23.701Z,18.79
2022-07-29T07:45:55.826Z,18.97
2022-07-29T07:48:26.211Z,19.10
2022-07-29T07:50:52.872Z,19.25
2022-07-29T07:53:19.674Z,19.35
2022-07-29T07:56:09.318Z,19.25
2022-07-29T07:58:33.693Z,19.16
2022-07-29T08:01:00.443Z,19.13
2022-07-29T08:03:27.137Z,19.33
2022-07-29T08:05:55.167Z,19.28
2022-07-29T08:08:22.014Z,19.18
2022-07-29T08:10:54.788Z,19.26
2022-07-29T08:13:23.032Z,18.77
2022-07-29T08:15:58.504Z,18.76
2022-07-29T08:18:26.313Z,18.96
2022-07-29T08:20:53.146Z,19.12
2022-07-29T08:23:20.166Z,19.30
2022-07-29T08:25:46.965Z,19.50
2022-07-29T08:28:17.826Z,18.94
2022-07-29T08:30:44.485Z,19.23
2022-07-29T08:33:11.152Z,19.24
2022-07-29T08:35:39.498Z,19.60
2022-07-29T08:38:06.145Z,19.85
2022-07-29T08:40:32.948Z,19.99
2022-07-29T08:43:06.539Z,20.09
2022-07-29T08:45:48.191Z,20.15
2022-07-29T08:48:23.232Z,20.10
2022-07-29T08:50:57.013Z,20.15
2022-07-29T08:53:27.970Z,19.94
2022-07-29T08:55:55.625Z,19.67
2022-07-29T08:58:24.716Z,20.02
2022-07-29T09:00:56.768Z,19.78
2022-07-29T09:03:29.148Z,19.76
2022-07-29T09:05:56.047Z,19.82
2022-07-29T09:08:24.095Z,20.02
2022-07-29T09:10:51.501Z,19.75
2022-07-29T09:13:18.784Z,19.77
2022-07-29T09:15:45.883Z,20.11
2022-07-29T09:18:20.473Z,20.37
2022-07-29T09:21:16.566Z,20.46
2022-07-29T09:24:10.003Z,20.42
2022-07-29T09:26:39.988Z,20.67
2022-07-29T09:29:18.102Z,20.82
2022-07-29T09:31:47.306Z,20.87
2022-07-29T09:34:17.398Z,20.98
2022-07-29T09:36:46.383Z,20.87
2022-07-29T09:39:14.099Z,21.03
2022-07-29T09:41:55.552Z,21.24
2022-07-29T09:44:24.101Z,21.20
2022-07-29T09:47:09.274Z,21.38
2022-07-29T09:49:50.594Z,21.48
2022-07-29T09:52:17.212Z,21.59
2022-07-29T09:54:43.874Z,21.72
2022-07-29T09:57:30.875Z,21.79
2022-07-29T10:00:07.944Z,21.81
2022-07-29T10:02:44.438Z,21.98
2022-07-29T10:05:18.342Z,21.91
2022-07-29T10:07:54.282Z,21.92
2022-07-29T10:10:23.679Z,22.05
2022-07-29T10:13:01.758Z,21.99
2022-07-29T10:15:38.000Z,22.17
2022-07-29T10:18:05.123Z,22.21
2022-07-29T10:20:31.747Z,22.26
2022-07-29T10:22:58.680Z,21.50
2022-07-29T10:25:26.071Z,22.06
2022-07-29T10:27:54.227Z,22.23
2022-07-29T10:30:22.858Z,22.35
2022-07-29T10:33:18.351Z,22.43
2022-07-29T10:36:06.400Z,22.35
2022-07-29T10:38:36.003Z,22.27
2022-07-29T10:41:43.991Z,22.20
2022-07-29T10:44:22.835Z,22.43
2022-07-29T10:46:52.121Z,22.13
2022-07-29T10:49:31.121Z,21.62
2022-07-29T10:52:02.629Z,22.17
2022-07-29T10:54:47.152Z,22.54
2022-07-29T10:57:14.735Z,22.67
2022-07-29T10:59:43.192Z,22.65
2022-07-29T11:02:42.334Z,22.58
2022-07-29T11:05:19.872Z,22.73
2022-07-29T11:08:20.224Z,22.83
2022-07-29T11:10:49.230Z,23.02
2022-07-29T11:13:46.520Z,23.13
2022-07-29T11:16:16.196Z,23.22
2022-07-29T11:19:14.749Z,23.34
2022-07-29T11:21:53.448Z,22.82
2022-07-29T11:24:29.202Z,23.05
2022-07-29T11:27:23.348Z,22.41
2022-07-29T11:29:58.554Z,22.97
2022-07-29T11:32:36.829Z,23.32
2022-07-29T11:35:19.115Z,23.42
2022-07-29T11:38:23.777Z,23.56
2022-07-29T11:41:23.981Z,23.65
2022-07-29T11:44:01.570Z,23.76
2022-07-29T11:46:47.822Z,23.77
2022-07-29T11:49:19.507Z,23.82
2022-07-29T11:51:57.134Z,23.98
2022-07-29T11:54:33.023Z,24.03
2022-07-29T11:57:07.899Z,24.06
2022-07-29T11:59:45.673Z,23.81
2022-07-29T12:02:37.424Z,24.06
2022-07-29T12:05:00.515Z,24.10
2022-07-29T12:07:39.099Z,23.76
2022-07-29T12:10:11.306Z,23.99
2022-07-29T12:12:53.684Z,24.18
2022-07-29T12:15:24.973Z,24.16
2022-07-29T12:18:18.376Z,24.14
2022-07-29T12:20:45.892Z,24.11
2022-07-29T12:23:13.266Z,24.24
2022-07-29T12:25:42.428Z,24.34
2022-07-29T12:28:14.221Z,24.48
2022-07-29T12:30:52.274Z,24.46
2022-07-29T12:33:19.024Z,24.60
2022-07-29T12:36:03.540Z,24.80
2022-07-29T12:38:37.177Z,24.92
2022-07-29T12:41:04.941Z,24.25
2022-07-29T12:43:32.086Z,24.48
2022-07-29T12:45:58.916Z,24.52
2022-07-29T12:48:42.983Z,24.52
2022-07-29T12:51:12.622Z,24.65
2022-07-29T12:53:42.094Z,24.76
2022-07-29T12:56:41.321Z,24.85
2022-07-29T12:59:21.213Z,25.12
2022-07-29T13:01:51.279Z,25.24
2022-07-29T13:04:37.681Z,25.24
2022-07-29T13:07:09.166Z,25.22
2022-07-29T13:09:39.843Z,25.07
2022-07-29T13:12:11.498Z,24.79
2022-07-29T13:14:41.415Z,24.80
2022-07-29T13:17:24.326Z,24.87
2022-07-29T13:19:54.077Z,25.00
2022-07-29T13:22:22.981Z,25.13
2022-07-29T13:25:04.749Z,25.18
2022-07-29T13:27:35.834Z,25.24
2022-07-29T13:30:04.830Z,24.75
2022-07-29T13:32:32.394Z,25.09
2022-07-29T13:35:05.132Z,25.28
2022-07-29T13:37:35.050Z,25.36
2022-07-29T13:40:04.173Z,25.62
2022-07-29T13:42:31.697Z,25.22
2022-07-29T13:44:58.624Z,25.05
2022-07-29T13:47:32.284Z,25.26
2022-07-29T13:50:05.337Z,25.48
2022-07-29T13:52:33.302Z,25.55
2022-07-29T13:55:00.024Z,25.61
2022-07-29T13:57:26.742Z,25.76
2022-07-29T13:59:54.578Z,25.84
2022-07-29T14:02:25.259Z,25.63
2022-07-29T14:04:53.581Z,23.94
2022-07-29T14:07:20.545Z,24.24
2022-07-29T14:09:47.260Z,24.93
2022-07-29T14:12:14.030Z,25.11
2022-07-29T14:14:40.817Z,25.26
2022-07-29T14:17:07.925Z,25.27
2022-07-29T14:19:41.147Z,25.07
2022-07-29T14:22:09.654Z,25.21
2022-07-29T14:24:38.437Z,25.52
2022-07-29T14:27:06.565Z,25.74
2022-07-29T14:29:37.789Z,25.76
2022-07-29T14:32:10.078Z,25.40
2022-07-29T14:34:38.312Z,24.17
2022-07-29T14:37:06.720Z,25.09
2022-07-29T14:39:38.178Z,25.49
2022-07-29T14:42:09.621Z,25.26
2022-07-29T14:44:38.353Z,25.08
2022-07-29T14:47:07.852Z,25.38
2022-07-29T14:49:35.480Z,25.59
2022-07-29T14:52:02.174Z,25.76
2022-07-29T14:54:29.074Z,25.81
2022-07-29T14:56:58.135Z,25.82
2022-07-29T14:59:25.500Z,25.80
2022-07-29T15:01:52.330Z,25.69
2022-07-29T15:04:18.988Z,25.85
2022-07-29T15:06:45.702Z,25.97
2022-07-29T15:09:12.811Z,25.87
2022-07-29T15:11:39.680Z,25.81
2022-07-29T15:14:07.043Z,25.70
2022-07-29T15:16:36.474Z,25.58
2022-07-29T15:19:03.803Z,25.42
2022-07-29T15:21:30.537Z,25.27
2022-07-29T15:23:57.302Z,25.11
2022-07-29T15:26:23.989Z,24.93
2022-07-29T15:28:50.577Z,24.78
2022-07-29T15:31:17.330Z,24.62
2022-07-29T15:33:43.974Z,24.60
2022-07-29T15:36:25.495Z,24.72
2022-07-29T15:38:59.315Z,24.89
2022-07-29T15:41:26.057Z,24.97
2022-07-29T15:43:52.654Z,24.99
2022-07-29T15:46:38.608Z,24.99
2022-07-29T15:49:08.367Z,24.53
2022-07-29T15:51:35.414Z,24.87
2022-07-29T15:54:03.623Z,24.99
2022-07-29T15:56:30.676Z,25.23
2022-07-29T15:58:57.823Z,25.41
2022-07-29T16:01:25.119Z,25.36
2022-07-29T16:03:52.000Z,25.45
2022-07-29T16:06:19.267Z,25.85
2022-07-29T16:08:45.876Z,26.21
2022-07-29T16:11:12.511Z,26.62
2022-07-29T16:13:39.142Z,27.03
2022-07-29T16:16:08.766Z,27.06
2022-07-29T16:18:47.204Z,27.49
2022-07-29T16:21:14.437Z,27.79
2022-07-29T16:23:41.434Z,28.04
2022-07-29T16:26:08.221Z,28.34
2022-07-29T16:28:35.000Z,28.58
2022-07-29T16:31:03.071Z,28.89
2022-07-29T16:33:54.379Z,28.76
2022-07-29T16:36:18.505Z,28.85
2022-07-29T16:38:47.372Z,28.78
2022-07-29T16:41:14.484Z,28.71
2022-07-29T16:43:42.330Z,28.72
2022-07-29T16:46:13.145Z,28.69
2022-07-29T16:48:45.508Z,28.73
2022-07-29T16:51:14.435Z,28.97
2022-07-29T16:53:44.522Z,29.16
2022-07-29T16:56:12.689Z,29.11
2022-07-29T16:58:43.545Z,29.15
2022-07-29T17:01:11.093Z,29.03
2022-07-29T17:04:00.198Z,29.05
2022-07-29T17:06:29.921Z,29.08
2022-07-29T17:08:56.983Z,29.25
2022-07-29T17:11:53.020Z,29.53
2022-07-29T17:14:10.635Z,29.54
2022-07-29T17:16:37.422Z,29.58
2022-07-29T17:19:04.451Z,29.41
2022-07-29T17:21:31.221Z,29.25
2022-07-29T17:23:59.265Z,29.24
2022-07-29T17:26:27.475Z,29.34
2022-07-29T17:28:55.603Z,29.32
2022-07-29T17:31:23.537Z,29.18
2022-07-29T17:33:50.725Z,29.02
2022-07-29T17:36:29.612Z,29.21
2022-07-29T17:38:59.040Z,29.48
2022-07-29T17:41:25.957Z,29.77
2022-07-29T17:43:53.412Z,29.91
2022-07-29T17:46:22.199Z,29.91
2022-07-29T17:48:49.382Z,29.79
2022-07-29T17:51:16.324Z,29.91
2022-07-29T17:53:43.008Z,29.76
2022-07-29T17:56:09.777Z,29.99
2022-07-29T17:58:36.554Z,29.96
2022-07-29T18:01:04.028Z,29.86
2022-07-29T18:03:30.928Z,29.54
2022-07-29T18:06:00.724Z,29.49
2022-07-29T18:08:28.108Z,29.17
2022-07-29T18:10:55.868Z,28.93
2022-07-29T18:13:22.504Z,28.51
2022-07-29T18:15:49.634Z,27.76
2022-07-29T18:18:18.244Z,27.59
2022-07-29T18:20:45.671Z,27.76
2022-07-29T18:23:12.948Z,27.35
2022-07-29T18:25:40.127Z,26.94
2022-07-29T18:28:07.253Z,26.66
2022-07-29T18:30:34.517Z,26.16
2022-07-29T18:35:49.493Z,25.34
2022-07-29T18:38:16.263Z,25.31
2022-07-29T18:40:44.492Z,25.12
2022-07-29T18:43:11.839Z,24.94
2022-07-29T18:45:39.572Z,24.58
2022-07-29T18:48:12.949Z,24.37
2022-07-29T18:50:41.201Z,24.14
2022-07-29T18:53:08.257Z,23.93
2022-07-29T18:55:34.857Z,23.77
2022-07-29T18:58:01.505Z,23.46
2022-07-29T19:00:28.584Z,22.96
2022-07-29T19:02:56.786Z,22.57
2022-07-29T19:05:24.017Z,22.28
2022-07-29T19:07:50.938Z,22.11
2022-07-29T19:10:17.748Z,21.99
2022-07-29T19:12:44.416Z,21.81
2022-07-29T19:15:11.385Z,21.67
2022-07-29T19:17:38.780Z,21.68
2022-07-29T19:20:07.295Z,21.63
2022-07-29T19:22:34.394Z,21.53
2022-07-29T19:25:01.088Z,21.47
2022-07-29T19:27:27.723Z,21.25
2022-07-29T19:29:58.995Z,21.10
2022-07-29T19:32:26.393Z,20.98
2022-07-29T19:35:11.848Z,20.92
2022-07-29T19:37:38.509Z,20.81
2022-07-29T19:40:06.889Z,20.72
2022-07-29T19:42:34.039Z,20.59
2022-07-29T19:45:00.947Z,20.50
2022-07-29T19:47:27.525Z,20.39
2022-07-29T19:49:54.183Z,20.34
2022-07-29T19:52:20.802Z,20.31
2022-07-29T19:54:47.555Z,20.19
2022-07-29T19:57:14.351Z,20.02
2022-07-29T19:59:41.342Z,19.94
2022-07-29T20:02:10.782Z,19.92
2022-07-29T20:04:38.472Z,19.84
2022-07-29T20:07:05.481Z,19.80
2022-07-29T20:09:32.386Z,19.75
2022-07-29T20:11:59.358Z,19.69
2022-07-29T20:14:25.993Z,19.65
2022-07-29T20:16:54.301Z,19.58
2022-07-29T20:19:20.983Z,19.51
2022-07-29T20:21:47.796Z,19.46
2022-07-29T20:24:14.485Z,19.36
2022-07-29T20:26:41.182Z,19.25
2022-07-29T20:29:07.851Z,19.25
2022-07-29T20:31:35.597Z,19.27
2022-07-29T20:34:02.260Z,19.18
2022-07-29T20:36:28.955Z,19.15
2022-07-29T20:38:55.937Z,19.12
2022-07-29T20:41:23.409Z,19.01
2022-07-29T20:43:50.292Z,18.99
2022-07-29T20:46:17.896Z,18.95
2022-07-29T20:48:47.220Z,18.88
2022-07-29T20:51:14.464Z,18.75
2022-07-29T20:53:41.666Z,18.67
2022-07-29T20:56:08.513Z,18.60
2022-07-29T20:58:36.293Z,18.59
2022-07-29T21:01:03.220Z,18.57
2022-07-29T21:03:30.088Z,18.46
2022-07-29T21:05:56.684Z,18.29
2022-07-29T21:08:23.374Z,18.27
2022-07-29T21:10:50.238Z,18.23
2022-07-29T21:13:17.070Z,18.37
2022-07-29T21:15:46.337Z,18.41
2022-07-29T21:18:31.915Z,18.47
2022-07-29T21:21:01.051Z,18.43
2022-07-29T21:23:28.174Z,18.38
2022-07-29T21:25:55.060Z,18.34
2022-07-29T21:28:29.327Z,18.26
2022-07-29T21:31:00.882Z,18.16
2022-07-29T21:33:29.570Z,18.11
2022-07-29T21:36:16.006Z,18.07
2022-07-29T21:38:43.482Z,18.01
2022-07-29T21:41:12.531Z,17.96
2022-07-29T21:43:41.771Z,17.99
2022-07-29T21:46:09.244Z,17.93
2022-07-29T21:48:36.158Z,17.97
2022-07-29T21:51:02.855Z,18.06
2022-07-29T21:53:30.682Z,18.03
2022-07-29T21:55:58.238Z,18.04
2022-07-29T21:58:26.008Z,18.11
2022-07-29T22:00:52.757Z,18.01
2022-07-29T22:03:19.409Z,17.91
2022-07-29T22:05:46.073Z,17.97
2022-07-29T22:08:13.434Z,18.01
2022-07-29T22:10:40.302Z,17.97
2022-07-29T22:13:07.103Z,17.96
2022-07-29T22:15:33.732Z,17.95
2022-07-29T22:18:00.589Z,17.94
2022-07-29T22:20:27.509Z,17.93
2022-07-29T22:22:54.859Z,17.84
2022-07-29T22:25:22.166Z,17.84
2022-07-29T22:27:49.584Z,17.82
2022-07-29T22:30:17.385Z,17.81
2022-07-29T22:32:44.178Z,17.84
2022-07-29T22:35:11.258Z,17.86
2022-07-29T22:37:41.016Z,17.80
2022-07-29T22:40:08.386Z,17.72
2022-07-29T22:42:35.484Z,17.67
2022-07-29T22:45:02.767Z,17.57
2022-07-29T22:47:39.005Z,17.57
2022-07-29T22:50:14.656Z,17.60
2022-07-29T22:52:41.527Z,17.58
2022-07-29T22:55:08.655Z,17.57
2022-07-29T22:57:35.335Z,17.49
2022-07-29T23:00:02.475Z,17.47
2022-07-29T23:02:29.449Z,17.41
2022-07-29T23:04:56.619Z,17.33
2022-07-29T23:07:23.453Z,17.35
2022-07-29T23:09:50.227Z,17.36
2022-07-29T23:12:17.561Z,17.34
2022-07-29T23:14:44.229Z,17.32
2022-07-29T23:17:10.948Z,17.30
2022-07-29T23:19:37.576Z,17.27
2022-07-29T23:22:04.784Z,17.24
2022-07-29T23:24:31.469Z,17.27
2022-07-29T23:26:58.386Z,17.29
2022-07-29T23:29:26.044Z,17.30
2022-07-29T23:31:52.599Z,17.27
2022-07-29T23:34:22.092Z,17.29
2022-07-29T23:36:48.791Z,17.26
2022-07-29T23:39:15.496Z,17.27
2022-07-29T23:41:42.675Z,17.18
2022-07-29T23:44:09.482Z,17.16
2022-07-29T23:46:36.112Z,17.18
2022-07-29T23:49:02.873Z,17.16
2022-07-29T23:51:29.679Z,17.08
2022-07-29T23:53:56.820Z,17.05
2022-07-29T23:56:23.596Z,16.97
2022-07-29T23:58:50.300Z,16.95
